createdAt,value
2018-08-02T00:01:26.442Z,9.93
2018-08-02T00:03:54.932Z,18.80
2018-08-02T00:06:23.295Z,12.37
2018-08-02T00:08:51.681Z,10.30
2018-08-02T00:11:20.017Z,11.87
2018-08-02T00:13:48.335Z,8.57
2018-08-02T00:16:16.644Z,7.20
2018-08-02T00:18:44.967Z,5.80
2018-08-02T00:21:13.343Z,6.87
2018-08-02T00:23:41.669Z,6.33
2018-08-02T00:26:10.027Z,6.80
2018-08-02T00:28:38.092Z,5.87
2018-08-02T00:31:06.415Z,6.43
2018-08-02T00:33:34.746Z,5.37
2018-08-02T00:36:03.082Z,4.73
2018-08-02T00:38:31.400Z,4.53
2018-08-02T00:40:59.707Z,5.03
2018-08-02T00:43:28.039Z,4.87
2018-08-02T00:45:56.390Z,5.30
2018-08-02T00:48:24.741Z,5.17
2018-08-02T00:50:53.050Z,5.30
2018-08-02T00:53:21.436Z,5.40
2018-08-02T00:55:49.730Z,5.63
2018-08-02T00:58:18.051Z,5.87
2018-08-02T01:00:47.124Z,6.23
2018-08-02T01:03:15.571Z,6.13
2018-08-02T01:05:44.011Z,7.50
2018-08-02T01:08:12.415Z,8.07
2018-08-02T01:10:40.710Z,7.80
2018-08-02T01:13:09.042Z,8.33
2018-08-02T01:15:37.425Z,7.90
2018-08-02T01:18:05.783Z,7.47
2018-08-02T01:20:34.162Z,6.60
2018-08-02T01:23:02.573Z,6.00
2018-08-02T01:25:30.960Z,6.33
2018-08-02T01:27:59.322Z,7.77
2018-08-02T01:30:27.653Z,8.57
2018-08-02T01:32:56.058Z,5.47
2018-08-02T01:35:24.409Z,5.80
2018-08-02T01:37:52.747Z,5.10
2018-08-02T01:40:21.076Z,4.80
2018-08-02T01:42:49.404Z,4.43
2018-08-02T01:45:17.730Z,4.07
2018-08-02T01:47:46.059Z,5.50
2018-08-02T01:50:14.407Z,4.80
2018-08-02T01:52:42.735Z,5.27
2018-08-02T01:55:11.114Z,7.00
2018-08-02T01:57:39.476Z,6.70
2018-08-02T02:00:07.804Z,5.73
2018-08-02T02:02:36.174Z,5.07
2018-08-02T02:05:04.496Z,6.37
2018-08-02T02:07:32.841Z,4.70
2018-08-02T02:10:01.150Z,5.13
2018-08-02T02:12:29.533Z,5.47
2018-08-02T02:14:57.909Z,5.40
2018-08-02T02:17:26.264Z,4.83
2018-08-02T02:19:54.301Z,4.60
2018-08-02T02:22:22.649Z,5.23
2018-08-02T02:24:50.994Z,5.67
2018-08-02T02:27:19.335Z,5.60
2018-08-02T02:29:47.645Z,4.87
2018-08-02T02:32:16.012Z,5.60
2018-08-02T02:34:44.328Z,4.70
2018-08-02T02:37:12.644Z,4.93
2018-08-02T02:39:40.998Z,5.53
2018-08-02T02:42:09.314Z,5.83
2018-08-02T02:44:37.658Z,5.50
2018-08-02T02:47:05.974Z,5.50
2018-08-02T02:49:34.296Z,5.47
2018-08-02T02:52:02.629Z,5.17
2018-08-02T02:54:30.970Z,5.10
2018-08-02T02:56:59.277Z,7.20
2018-08-02T02:59:28.421Z,6.27
2018-08-02T03:01:56.751Z,7.53
2018-08-02T03:04:25.068Z,5.80
2018-08-02T03:06:53.416Z,7.70
2018-08-02T03:09:21.745Z,7.00
2018-08-02T03:11:50.079Z,7.83
2018-08-02T03:14:18.422Z,6.50
2018-08-02T03:16:46.737Z,8.07
2018-08-02T03:19:15.044Z,7.07
2018-08-02T03:21:43.360Z,7.90
2018-08-02T03:24:11.743Z,8.73
2018-08-02T03:26:40.036Z,7.70
2018-08-02T03:29:08.099Z,7.87
2018-08-02T03:31:36.425Z,7.07
2018-08-02T03:34:04.747Z,7.47
2018-08-02T03:36:33.055Z,7.40
2018-08-02T03:39:01.346Z,6.43
2018-08-02T03:41:29.687Z,6.57
2018-08-02T03:43:58.099Z,6.90
2018-08-02T03:46:26.486Z,6.13
2018-08-02T03:48:54.814Z,6.87
2018-08-02T03:51:23.134Z,6.00
2018-08-02T03:53:51.481Z,6.50
2018-08-02T03:56:19.806Z,8.70
2018-08-02T03:58:48.107Z,9.40
2018-08-02T04:01:16.442Z,12.30
2018-08-02T04:03:44.763Z,14.80
2018-08-02T04:06:13.086Z,9.37
2018-08-02T04:08:41.382Z,8.37
2018-08-02T04:11:09.720Z,7.43
2018-08-02T04:13:38.103Z,7.40
2018-08-02T04:16:06.550Z,6.47
2018-08-02T04:18:38.645Z,7.37
2018-08-02T04:21:08.017Z,6.20
2018-08-02T04:23:36.353Z,7.93
2018-08-02T04:26:04.741Z,7.83
2018-08-02T04:28:33.086Z,6.20
2018-08-02T04:31:01.409Z,6.40
2018-08-02T04:33:29.798Z,5.43
2018-08-02T04:35:58.152Z,6.87
2018-08-02T04:38:26.497Z,6.90
2018-08-02T04:40:54.822Z,6.40
2018-08-02T04:43:23.138Z,6.50
2018-08-02T04:45:51.515Z,6.10
2018-08-02T04:48:19.849Z,8.33
2018-08-02T04:50:48.149Z,6.90
2018-08-02T04:53:16.510Z,7.00
2018-08-02T04:55:44.855Z,8.53
2018-08-02T04:58:13.190Z,9.80
2018-08-02T05:00:41.534Z,11.97
2018-08-02T05:03:09.889Z,10.67
2018-08-02T05:05:38.208Z,13.10
2018-08-02T05:08:06.646Z,12.53
2018-08-02T05:10:34.877Z,10.97
2018-08-02T05:13:03.235Z,9.40
2018-08-02T05:15:31.561Z,11.80
2018-08-02T05:17:59.925Z,10.77
2018-08-02T05:20:28.394Z,10.17
2018-08-02T05:22:56.761Z,8.47
2018-08-02T05:25:25.080Z,8.10
2018-08-02T05:27:53.383Z,7.33
2018-08-02T05:30:21.737Z,8.00
2018-08-02T05:32:50.108Z,7.70
2018-08-02T05:35:18.591Z,6.43
2018-08-02T05:37:46.855Z,6.80
2018-08-02T05:40:15.164Z,10.03
2018-08-02T05:42:43.519Z,11.63
2018-08-02T05:45:11.872Z,12.77
2018-08-02T05:47:40.281Z,12.17
2018-08-02T05:50:08.584Z,11.80
2018-08-02T05:52:36.988Z,9.93
2018-08-02T05:55:05.350Z,10.40
2018-08-02T05:57:33.678Z,7.43
2018-08-02T06:00:02.081Z,7.00
2018-08-02T06:02:30.419Z,6.40
2018-08-02T06:04:58.770Z,6.50
2018-08-02T06:07:27.112Z,5.43
2018-08-02T06:09:55.418Z,5.47
2018-08-02T06:12:23.752Z,5.87
2018-08-02T06:14:52.091Z,5.70
2018-08-02T06:17:20.423Z,5.87
2018-08-02T06:19:48.728Z,6.70
2018-08-02T06:22:17.115Z,5.60
2018-08-02T06:24:45.460Z,5.43
2018-08-02T06:27:13.776Z,5.40
2018-08-02T06:29:42.104Z,6.10
2018-08-02T06:32:10.468Z,5.60
2018-08-02T06:34:38.819Z,6.00
2018-08-02T06:37:07.205Z,6.90
2018-08-02T06:39:35.665Z,5.80
2018-08-02T06:42:04.071Z,6.23
2018-08-02T06:44:32.463Z,5.50
2018-08-02T06:47:00.894Z,6.83
2018-08-02T06:49:29.197Z,5.17
2018-08-02T06:51:57.545Z,5.47
2018-08-02T06:54:25.851Z,5.70
2018-08-02T06:56:54.148Z,5.63
2018-08-02T06:59:22.532Z,5.77
2018-08-02T07:01:50.882Z,5.83
2018-08-02T07:04:19.236Z,5.90
2018-08-02T07:06:47.581Z,5.90
2018-08-02T07:09:15.893Z,5.33
2018-08-02T07:11:44.220Z,5.10
2018-08-02T07:14:12.558Z,5.00
2018-08-02T07:16:40.908Z,5.63
2018-08-02T07:19:08.998Z,4.70
2018-08-02T07:21:37.442Z,5.53
2018-08-02T07:24:05.971Z,5.30
2018-08-02T07:26:34.451Z,4.70
2018-08-02T07:29:02.966Z,5.53
2018-08-02T07:31:31.367Z,5.40
2018-08-02T07:33:59.808Z,5.57
2018-08-02T07:36:28.142Z,5.60
2018-08-02T07:38:56.494Z,5.13
2018-08-02T07:41:24.842Z,4.67
2018-08-02T07:43:53.202Z,4.33
2018-08-02T07:46:21.653Z,4.53
2018-08-02T07:48:49.848Z,4.13
2018-08-02T07:51:18.179Z,4.40
2018-08-02T07:53:46.584Z,4.93
2018-08-02T07:56:14.997Z,4.03
2018-08-02T07:58:43.289Z,3.70
2018-08-02T08:01:11.653Z,4.03
2018-08-02T08:03:40.154Z,4.70
2018-08-02T08:06:08.560Z,4.67
2018-08-02T08:08:36.872Z,4.27
2018-08-02T08:11:05.333Z,4.60
2018-08-02T08:13:33.658Z,4.80
2018-08-02T08:16:02.125Z,4.37
2018-08-02T08:18:30.501Z,4.50
2018-08-02T08:20:58.874Z,4.70
2018-08-02T08:23:27.230Z,4.63
2018-08-02T08:25:55.341Z,4.57
2018-08-02T08:28:23.721Z,4.80
2018-08-02T08:30:52.099Z,4.40
2018-08-02T08:33:20.446Z,5.00
2018-08-02T08:35:48.963Z,5.07
2018-08-02T08:38:17.323Z,4.80
2018-08-02T08:40:45.379Z,4.60
2018-08-02T08:43:13.451Z,5.30
2018-08-02T08:45:41.794Z,4.77
2018-08-02T08:48:10.134Z,4.90
2018-08-02T08:50:38.526Z,6.40
2018-08-02T08:53:06.864Z,5.37
2018-08-02T08:55:35.251Z,4.67
2018-08-02T08:58:03.359Z,4.97
2018-08-02T09:00:31.722Z,5.13
2018-08-02T09:03:00.102Z,4.77
2018-08-02T09:05:28.466Z,5.20
2018-08-02T09:07:56.820Z,4.50
2018-08-02T09:10:25.203Z,5.40
2018-08-02T09:12:53.529Z,5.20
2018-08-02T09:15:21.938Z,5.40
2018-08-02T09:17:50.253Z,5.00
2018-08-02T09:20:18.297Z,5.37
2018-08-02T09:22:46.632Z,4.97
2018-08-02T09:25:15.028Z,4.77
2018-08-02T09:27:43.414Z,5.10
2018-08-02T09:30:11.784Z,5.30
2018-08-02T09:32:40.238Z,5.40
2018-08-02T09:35:08.621Z,5.03
2018-08-02T09:37:36.947Z,5.50
2018-08-02T09:40:05.428Z,5.50
2018-08-02T09:42:33.782Z,5.30
2018-08-02T09:45:02.219Z,5.90
2018-08-02T09:47:30.577Z,5.43
2018-08-02T09:49:58.945Z,6.00
2018-08-02T09:52:27.344Z,4.77
2018-08-02T09:54:55.679Z,5.10
2018-08-02T09:57:24.020Z,5.20
2018-08-02T09:59:52.350Z,5.67
2018-08-02T10:02:20.704Z,5.73
2018-08-02T10:04:49.086Z,5.30
2018-08-02T10:07:17.392Z,5.57
2018-08-02T10:09:45.766Z,5.90
2018-08-02T10:12:14.147Z,5.50
2018-08-02T10:14:42.590Z,5.90
2018-08-02T10:17:10.973Z,5.10
2018-08-02T10:19:39.327Z,4.00
2018-08-02T10:22:07.741Z,5.20
2018-08-02T10:24:36.142Z,5.27
2018-08-02T10:27:04.486Z,5.40
2018-08-02T10:29:32.949Z,5.20
2018-08-02T10:32:01.275Z,5.97
2018-08-02T10:34:29.369Z,5.90
2018-08-02T10:36:57.443Z,5.77
2018-08-02T10:39:25.492Z,5.63
2018-08-02T10:41:53.834Z,5.73
2018-08-02T10:44:22.174Z,5.10
2018-08-02T10:46:50.577Z,5.20
2018-08-02T10:49:19.411Z,5.30
2018-08-02T10:51:47.727Z,5.20
2018-08-02T10:54:16.116Z,5.03
2018-08-02T10:56:44.512Z,5.07
2018-08-02T10:59:12.940Z,6.10
2018-08-02T11:01:41.318Z,5.63
2018-08-02T11:04:09.383Z,5.03
2018-08-02T11:06:37.469Z,5.33
2018-08-02T11:09:07.330Z,5.70
2018-08-02T11:11:35.736Z,5.33
2018-08-02T11:14:11.289Z,5.57
2018-08-02T11:16:41.096Z,5.40
2018-08-02T11:19:09.890Z,4.53
2018-08-02T11:21:38.361Z,5.20
2018-08-02T11:24:06.898Z,5.07
2018-08-02T11:26:35.614Z,4.67
2018-08-02T11:29:04.089Z,4.40
2018-08-02T11:31:32.519Z,5.23
2018-08-02T11:34:00.876Z,4.70
2018-08-02T11:36:29.313Z,4.20
2018-08-02T11:38:57.846Z,4.50
2018-08-02T11:41:26.194Z,4.27
2018-08-02T11:43:54.603Z,5.10
2018-08-02T11:46:22.996Z,4.23
2018-08-02T11:48:51.307Z,4.90
2018-08-02T11:51:19.649Z,5.60
2018-08-02T11:53:48.013Z,4.77
2018-08-02T11:56:16.467Z,5.20
2018-08-02T11:58:44.881Z,4.83
2018-08-02T12:01:13.257Z,4.60
2018-08-02T12:03:41.714Z,5.50
2018-08-02T12:06:10.052Z,5.20
2018-08-02T12:08:38.466Z,4.67
2018-08-02T12:11:07.245Z,4.60
2018-08-02T12:13:35.635Z,5.17
2018-08-02T12:16:04.027Z,4.87
2018-08-02T12:18:32.457Z,5.40
2018-08-02T12:21:00.726Z,5.27
2018-08-02T12:23:29.081Z,5.40
2018-08-02T12:25:57.398Z,5.40
2018-08-02T12:28:25.720Z,5.70
2018-08-02T12:30:54.152Z,5.43
2018-08-02T12:33:22.529Z,5.17
2018-08-02T12:35:50.890Z,5.10
2018-08-02T12:38:19.271Z,5.80
2018-08-02T12:40:47.689Z,5.07
2018-08-02T12:43:16.048Z,5.23
2018-08-02T12:45:44.441Z,4.87
2018-08-02T12:48:12.852Z,4.87
2018-08-02T12:50:41.193Z,5.00
2018-08-02T12:53:09.579Z,5.53
2018-08-02T12:55:37.996Z,5.60
2018-08-02T12:58:06.487Z,5.40
2018-08-02T13:00:34.860Z,5.33
2018-08-02T13:03:03.221Z,5.60
2018-08-02T13:05:31.588Z,5.27
2018-08-02T13:07:59.888Z,5.17
2018-08-02T13:10:28.397Z,5.07
2018-08-02T13:12:56.738Z,5.13
2018-08-02T13:15:25.130Z,5.00
2018-08-02T13:17:53.513Z,5.07
2018-08-02T13:20:21.865Z,5.33
2018-08-02T13:22:50.843Z,5.70
2018-08-02T13:25:19.200Z,6.00
2018-08-02T13:27:47.577Z,4.73
2018-08-02T13:30:15.939Z,5.30
2018-08-02T13:32:44.368Z,5.77
2018-08-02T13:35:12.838Z,5.33
2018-08-02T13:37:41.134Z,5.23
2018-08-02T13:40:09.518Z,5.00
2018-08-02T13:42:37.948Z,5.00
2018-08-02T13:45:06.514Z,4.60
2018-08-02T13:47:34.901Z,5.07
2018-08-02T13:50:03.309Z,5.03
2018-08-02T13:52:31.730Z,5.00
2018-08-02T13:55:00.120Z,5.58
2018-08-02T13:57:28.253Z,4.70
2018-08-02T13:59:56.374Z,4.97
2018-08-02T14:02:24.757Z,5.20
2018-08-02T14:04:53.125Z,4.83
2018-08-02T14:07:21.550Z,5.17
2018-08-02T14:09:49.928Z,5.05
2018-08-02T14:12:18.335Z,5.35
2018-08-02T14:14:46.685Z,5.05
2018-08-02T14:17:15.050Z,5.42
2018-08-02T14:19:43.403Z,4.97
2018-08-02T14:22:11.843Z,5.50
2018-08-02T14:24:39.834Z,4.90
2018-08-02T14:27:08.195Z,5.10
2018-08-02T14:29:36.544Z,5.05
2018-08-02T14:32:04.892Z,5.15
2018-08-02T14:34:33.279Z,4.87
2018-08-02T14:37:01.654Z,4.75
2018-08-02T14:39:29.977Z,4.70
2018-08-02T14:41:58.302Z,4.97
2018-08-02T14:44:26.679Z,5.33
2018-08-02T14:46:54.976Z,5.12
2018-08-02T14:49:23.378Z,5.55
2018-08-02T14:51:51.729Z,5.10
2018-08-02T14:54:20.114Z,5.35
2018-08-02T14:56:48.502Z,4.70
2018-08-02T14:59:16.875Z,4.92
2018-08-02T15:01:45.281Z,4.40
2018-08-02T15:04:13.648Z,5.05
2018-08-02T15:06:41.993Z,4.70
2018-08-02T15:09:11.585Z,4.77
2018-08-02T15:11:39.946Z,4.67
2018-08-02T15:14:08.327Z,4.80
2018-08-02T15:16:37.313Z,4.72
2018-08-02T15:19:05.744Z,4.75
2018-08-02T15:21:34.255Z,4.70
2018-08-02T15:24:02.919Z,4.70
2018-08-02T15:26:31.320Z,4.65
2018-08-02T15:28:59.699Z,5.00
2018-08-02T15:31:28.186Z,5.28
2018-08-02T15:33:56.190Z,4.85
2018-08-02T15:36:24.234Z,4.70
2018-08-02T15:38:52.572Z,4.97
2018-08-02T15:41:20.919Z,4.40
2018-08-02T15:43:49.290Z,4.67
2018-08-02T15:46:17.345Z,5.17
2018-08-02T15:48:45.678Z,5.30
2018-08-02T15:51:14.075Z,4.90
2018-08-02T15:53:42.589Z,5.62
2018-08-02T15:56:11.003Z,4.58
2018-08-02T15:58:39.319Z,4.70
2018-08-02T16:01:07.764Z,4.40
2018-08-02T16:03:36.200Z,4.20
2018-08-02T16:06:04.612Z,4.78
2018-08-02T16:08:33.024Z,4.75
2018-08-02T16:11:01.369Z,5.05
2018-08-02T16:13:29.478Z,4.28
2018-08-02T16:15:57.866Z,4.65
2018-08-02T16:18:26.340Z,4.50
2018-08-02T16:20:55.050Z,4.53
2018-08-02T16:23:23.428Z,4.87
2018-08-02T16:25:52.689Z,4.35
2018-08-02T16:28:21.142Z,6.28
2018-08-02T16:30:49.403Z,4.70
2018-08-02T16:33:17.750Z,4.50
2018-08-02T16:35:46.153Z,4.28
2018-08-02T16:38:14.514Z,4.53
2018-08-02T16:40:42.904Z,5.00
2018-08-02T16:43:11.245Z,4.87
2018-08-02T16:45:39.586Z,5.05
2018-08-02T16:48:08.037Z,4.78
2018-08-02T16:50:36.464Z,4.28
2018-08-02T16:53:04.821Z,4.80
2018-08-02T16:55:33.159Z,4.55
2018-08-02T16:58:01.498Z,4.70
2018-08-02T17:00:29.899Z,4.80
2018-08-02T17:02:58.261Z,5.20
2018-08-02T17:05:26.646Z,4.67
2018-08-02T17:07:55.005Z,4.85
2018-08-02T17:10:23.358Z,4.97
2018-08-02T17:12:51.709Z,4.35
2018-08-02T17:15:20.026Z,4.50
2018-08-02T17:17:48.427Z,4.90
2018-08-02T17:20:16.773Z,4.67
2018-08-02T17:22:45.133Z,5.40
2018-08-02T17:25:13.504Z,4.90
2018-08-02T17:27:41.882Z,5.13
2018-08-02T17:30:10.287Z,4.80
2018-08-02T17:32:38.677Z,4.93
2018-08-02T17:35:07.157Z,4.80
2018-08-02T17:37:35.671Z,5.10
2018-08-02T17:40:04.373Z,4.90
2018-08-02T17:42:32.779Z,4.77
2018-08-02T17:45:01.173Z,5.30
2018-08-02T17:47:29.532Z,5.20
2018-08-02T17:49:57.942Z,5.03
2018-08-02T17:52:26.366Z,5.13
2018-08-02T17:54:54.874Z,5.17
2018-08-02T17:57:23.212Z,4.80
2018-08-02T17:59:51.640Z,5.87
2018-08-02T18:02:20.208Z,5.60
2018-08-02T18:04:48.588Z,5.60
2018-08-02T18:07:17.045Z,5.90
2018-08-02T18:09:45.495Z,6.00
2018-08-02T18:12:13.899Z,5.50
2018-08-02T18:14:42.293Z,5.27
2018-08-02T18:17:10.641Z,5.17
2018-08-02T18:19:39.037Z,5.10
2018-08-02T18:22:07.409Z,4.87
2018-08-02T18:24:36.325Z,5.20
2018-08-02T18:27:04.912Z,5.00
2018-08-02T18:29:33.308Z,5.37
2018-08-02T18:32:01.669Z,5.10
2018-08-02T18:34:30.034Z,5.20
2018-08-02T18:36:58.809Z,5.20
2018-08-02T18:39:27.304Z,5.90
2018-08-02T18:41:55.655Z,5.13
2018-08-02T18:44:24.042Z,5.33
2018-08-02T18:46:52.905Z,4.80
2018-08-02T18:49:21.194Z,5.13
2018-08-02T18:51:49.613Z,6.17
2018-08-02T18:54:17.966Z,5.80
2018-08-02T18:56:46.401Z,5.93
2018-08-02T18:59:14.738Z,5.80
2018-08-02T19:01:43.135Z,5.43
2018-08-02T19:04:11.540Z,5.60
2018-08-02T19:06:39.932Z,5.90
2018-08-02T19:09:08.840Z,6.77
2018-08-02T19:11:37.352Z,6.77
2018-08-02T19:14:05.790Z,6.50
2018-08-02T19:16:34.207Z,6.13
2018-08-02T19:19:02.603Z,6.30
2018-08-02T19:21:31.060Z,6.27
2018-08-02T19:23:59.582Z,6.83
2018-08-02T19:26:27.989Z,6.63
2018-08-02T19:28:56.404Z,6.20
2018-08-02T19:31:24.873Z,6.13
2018-08-02T19:33:53.545Z,5.83
2018-08-02T19:36:21.689Z,5.23
2018-08-02T19:38:50.144Z,5.77
2018-08-02T19:41:18.582Z,6.10
2018-08-02T19:43:47.036Z,6.10
2018-08-02T19:46:15.402Z,6.13
2018-08-02T19:48:43.766Z,6.57
2018-08-02T19:51:12.213Z,6.57
2018-08-02T19:53:40.676Z,7.07
2018-08-02T19:56:09.088Z,6.00
2018-08-02T19:58:37.478Z,6.43
2018-08-02T20:01:05.902Z,6.53
2018-08-02T20:03:34.317Z,6.53
2018-08-02T20:06:02.735Z,6.70
2018-08-02T20:08:31.172Z,6.83
2018-08-02T20:10:59.598Z,5.80
2018-08-02T20:13:28.090Z,5.77
2018-08-02T20:15:56.184Z,5.60
2018-08-02T20:18:24.387Z,6.17
2018-08-02T20:20:52.812Z,5.73
2018-08-02T20:23:21.325Z,5.73
2018-08-02T20:25:49.691Z,5.43
2018-08-02T20:28:18.064Z,5.30
2018-08-02T20:30:46.457Z,5.53
2018-08-02T20:33:14.863Z,5.40
2018-08-02T20:35:43.284Z,5.60
2018-08-02T20:38:11.743Z,5.00
2018-08-02T20:40:40.283Z,5.20
2018-08-02T20:43:08.706Z,5.40
2018-08-02T20:45:37.152Z,5.13
2018-08-02T20:48:05.650Z,5.20
2018-08-02T20:50:34.014Z,5.00
2018-08-02T20:53:02.372Z,5.10
2018-08-02T20:55:30.744Z,5.60
2018-08-02T20:57:59.204Z,5.63
2018-08-02T21:00:27.578Z,4.80
2018-08-02T21:02:56.019Z,5.20
2018-08-02T21:05:24.357Z,5.73
2018-08-02T21:07:52.768Z,5.20
2018-08-02T21:10:21.174Z,4.90
2018-08-02T21:12:50.101Z,5.40
2018-08-02T21:15:18.465Z,6.00
2018-08-02T21:17:46.842Z,5.70
2018-08-02T21:20:15.211Z,5.63
2018-08-02T21:22:43.547Z,5.33
2018-08-02T21:25:11.898Z,5.67
2018-08-02T21:27:40.255Z,5.60
2018-08-02T21:30:08.620Z,5.23
2018-08-02T21:32:36.976Z,5.17
2018-08-02T21:35:05.326Z,5.30
2018-08-02T21:37:33.412Z,5.40
2018-08-02T21:40:01.795Z,5.57
2018-08-02T21:42:30.176Z,5.73
2018-08-02T21:44:58.572Z,6.20
2018-08-02T21:47:26.947Z,6.70
2018-08-02T21:49:55.309Z,6.13
2018-08-02T21:52:23.663Z,6.47
2018-08-02T21:54:52.091Z,6.40
2018-08-02T21:57:20.400Z,6.23
2018-08-02T21:59:48.768Z,6.10
2018-08-02T22:02:17.112Z,6.03
2018-08-02T22:04:45.956Z,5.90
2018-08-02T22:07:16.189Z,6.17
2018-08-02T22:09:44.948Z,7.50
2018-08-02T22:12:18.706Z,7.07
2018-08-02T22:14:52.368Z,6.90
2018-08-02T22:17:20.717Z,7.70
2018-08-02T22:19:49.058Z,7.63
2018-08-02T22:22:17.408Z,6.30
2018-08-02T22:24:45.927Z,5.70
2018-08-02T22:27:14.289Z,6.23
2018-08-02T22:29:42.353Z,6.43
2018-08-02T22:32:10.681Z,6.00
2018-08-02T22:34:39.078Z,5.90
2018-08-02T22:37:07.477Z,5.77
2018-08-02T22:39:36.236Z,5.90
2018-08-02T22:42:04.595Z,6.23
2018-08-02T22:44:33.023Z,6.27
2018-08-02T22:47:01.444Z,6.47
2018-08-02T22:49:29.801Z,6.27
2018-08-02T22:51:58.174Z,6.80
2018-08-02T22:54:26.525Z,7.07
2018-08-02T22:56:54.838Z,5.73
2018-08-02T22:59:23.259Z,6.07
2018-08-02T23:01:51.646Z,6.17
2018-08-02T23:04:20.016Z,6.10
2018-08-02T23:06:48.354Z,5.97
2018-08-02T23:09:16.705Z,5.83
2018-08-02T23:11:45.085Z,6.70
2018-08-02T23:14:13.432Z,6.90
2018-08-02T23:16:41.771Z,7.00
2018-08-02T23:19:10.132Z,6.40
2018-08-02T23:21:38.489Z,6.30
2018-08-02T23:24:06.900Z,7.17
2018-08-02T23:26:35.281Z,6.97
2018-08-02T23:29:03.658Z,7.40
2018-08-02T23:31:32.133Z,7.90
2018-08-02T23:34:00.497Z,6.37
2018-08-02T23:36:28.878Z,8.00
2018-08-02T23:38:57.338Z,6.60
2018-08-02T23:41:25.702Z,7.17
2018-08-02T23:43:54.045Z,6.30
2018-08-02T23:46:22.409Z,6.50
2018-08-02T23:48:50.801Z,6.87
2018-08-02T23:51:19.111Z,6.37
2018-08-02T23:53:47.484Z,6.87
2018-08-02T23:56:15.864Z,7.20
2018-08-02T23:58:44.205Z,6.60
